sensor_id;sensor_type;location;lat;lon;timestamp;P1;durP1;ratioP1;P2;durP2;ratioP2
40170;SDS011;37650;52.790;18.268;2023-03-26T00:01:23;7.90;;;3.90;;
40170;SDS011;37650;52.790;18.268;2023-03-26T00:04:45;9.30;;;4.40;;
40170;SDS011;37650;52.790;18.268;2023-03-26T00:08:07;7.50;;;4.10;;
40170;SDS011;37650;52.790;18.268;2023-03-26T00:11:28;9.10;;;5.00;;
40170;SDS011;37650;52.790;18.268;2023-03-26T00:14:50;9.70;;;6.90;;
40170;SDS011;37650;52.790;18.268;2023-03-26T00:18:12;10.40;;;5.70;;
40170;SDS011;37650;52.790;18.268;2023-03-26T00:21:34;8.10;;;4.30;;
40170;SDS011;37650;52.790;18.268;2023-03-26T00:24:55;7.90;;;3.70;;
40170;SDS011;37650;52.790;18.268;2023-03-26T00:28:17;7.40;;;3.70;;
40170;SDS011;37650;52.790;18.268;2023-03-26T00:31:41;7.30;;;3.00;;
40170;SDS011;37650;52.790;18.268;2023-03-26T00:35:06;6.50;;;3.90;;
40170;SDS011;37650;52.790;18.268;2023-03-26T00:38:28;7.10;;;3.30;;
40170;SDS011;37650;52.790;18.268;2023-03-26T00:41:49;6.40;;;3.50;;
40170;SDS011;37650;52.790;18.268;2023-03-26T00:45:14;7.80;;;4.00;;
40170;SDS011;37650;52.790;18.268;2023-03-26T00:48:37;9.10;;;3.40;;
40170;SDS011;37650;52.790;18.268;2023-03-26T00:55:23;9.60;;;4.10;;
40170;SDS011;37650;52.790;18.268;2023-03-26T00:58:45;10.00;;;4.20;;
40170;SDS011;37650;52.790;18.268;2023-03-26T01:02:11;8.20;;;4.20;;
40170;SDS011;37650;52.790;18.268;2023-03-26T01:09:13;7.40;;;3.90;;
40170;SDS011;37650;52.790;18.268;2023-03-26T01:12:38;6.70;;;3.80;;
40170;SDS011;37650;52.790;18.268;2023-03-26T01:16:00;6.60;;;3.80;;
40170;SDS011;37650;52.790;18.268;2023-03-26T01:23:05;6.80;;;3.30;;
40170;SDS011;37650;52.790;18.268;2023-03-26T01:26:30;8.80;;;3.60;;
40170;SDS011;37650;52.790;18.268;2023-03-26T01:30:15;7.00;;;3.00;;
40170;SDS011;37650;52.790;18.268;2023-03-26T01:41:07;6.90;;;3.40;;
40170;SDS011;37650;52.790;18.268;2023-03-26T01:44:44;6.70;;;3.10;;
40170;SDS011;37650;52.790;18.268;2023-03-26T01:48:15;7.70;;;3.80;;
40170;SDS011;37650;52.790;18.268;2023-03-26T01:51:36;10.60;;;4.10;;
40170;SDS011;37650;52.790;18.268;2023-03-26T01:58:28;7.70;;;3.60;;
40170;SDS011;37650;52.790;18.268;2023-03-26T02:02:02;6.60;;;3.80;;
40170;SDS011;37650;52.790;18.268;2023-03-26T02:05:53;12.80;;;7.50;;
40170;SDS011;37650;52.790;18.268;2023-03-26T02:09:19;9.60;;;6.20;;
40170;SDS011;37650;52.790;18.268;2023-03-26T02:12:44;7.10;;;4.70;;
40170;SDS011;37650;52.790;18.268;2023-03-26T02:16:07;5.10;;;3.40;;
40170;SDS011;37650;52.790;18.268;2023-03-26T02:19:33;7.70;;;3.60;;
40170;SDS011;37650;52.790;18.268;2023-03-26T02:22:58;7.20;;;3.40;;
40170;SDS011;37650;52.790;18.268;2023-03-26T02:26:35;5.70;;;3.10;;
40170;SDS011;37650;52.790;18.268;2023-03-26T02:30:00;9.40;;;3.50;;
40170;SDS011;37650;52.790;18.268;2023-03-26T02:33:22;5.10;;;3.10;;
40170;SDS011;37650;52.790;18.268;2023-03-26T02:36:44;5.40;;;2.80;;
40170;SDS011;37650;52.790;18.268;2023-03-26T02:40:06;5.20;;;2.80;;
40170;SDS011;37650;52.790;18.268;2023-03-26T02:43:31;4.60;;;2.60;;
40170;SDS011;37650;52.790;18.268;2023-03-26T02:46:53;7.30;;;2.30;;
40170;SDS011;37650;52.790;18.268;2023-03-26T02:50:40;4.50;;;2.20;;
40170;SDS011;37650;52.790;18.268;2023-03-26T02:54:32;7.60;;;2.70;;
40170;SDS011;37650;52.790;18.268;2023-03-26T02:58:05;5.50;;;1.90;;
40170;SDS011;37650;52.790;18.268;2023-03-26T03:01:31;3.90;;;1.70;;
40170;SDS011;37650;52.790;18.268;2023-03-26T03:04:55;4.30;;;1.40;;
40170;SDS011;37650;52.790;18.268;2023-03-26T03:08:25;3.50;;;1.20;;
40170;SDS011;37650;52.790;18.268;2023-03-26T03:12:14;3.80;;;1.40;;
40170;SDS011;37650;52.790;18.268;2023-03-26T03:15:35;3.90;;;1.60;;
40170;SDS011;37650;52.790;18.268;2023-03-26T03:18:56;3.10;;;1.40;;
40170;SDS011;37650;52.790;18.268;2023-03-26T03:22:20;4.40;;;1.70;;
40170;SDS011;37650;52.790;18.268;2023-03-26T03:25:41;4.60;;;2.30;;
40170;SDS011;37650;52.790;18.268;2023-03-26T03:29:03;5.30;;;2.20;;
40170;SDS011;37650;52.790;18.268;2023-03-26T03:32:25;5.50;;;2.20;;
40170;SDS011;37650;52.790;18.268;2023-03-26T03:35:50;8.70;;;4.40;;
40170;SDS011;37650;52.790;18.268;2023-03-26T03:39:12;5.90;;;3.10;;
40170;SDS011;37650;52.790;18.268;2023-03-26T03:45:57;5.90;;;2.80;;
40170;SDS011;37650;52.790;18.268;2023-03-26T03:49:44;5.10;;;2.80;;
40170;SDS011;37650;52.790;18.268;2023-03-26T03:53:06;5.40;;;2.40;;
40170;SDS011;37650;52.790;18.268;2023-03-26T03:56:28;4.70;;;2.80;;
40170;SDS011;37650;52.790;18.268;2023-03-26T04:00:09;4.10;;;2.50;;
40170;SDS011;37650;52.790;18.268;2023-03-26T04:03:37;7.30;;;2.70;;
40170;SDS011;37650;52.790;18.268;2023-03-26T04:07:03;6.00;;;2.70;;
40170;SDS011;37650;52.790;18.268;2023-03-26T04:11:01;4.60;;;2.10;;
40170;SDS011;37650;52.790;18.268;2023-03-26T04:14:43;5.00;;;2.20;;
40170;SDS011;37650;52.790;18.268;2023-03-26T04:18:09;6.10;;;2.70;;
40170;SDS011;37650;52.790;18.268;2023-03-26T04:21:31;6.30;;;2.20;;
40170;SDS011;37650;52.790;18.268;2023-03-26T04:24:57;4.10;;;2.20;;
40170;SDS011;37650;52.790;18.268;2023-03-26T04:28:43;3.50;;;1.60;;
40170;SDS011;37650;52.790;18.268;2023-03-26T04:32:23;7.20;;;3.00;;
40170;SDS011;37650;52.790;18.268;2023-03-26T04:35:53;5.20;;;2.40;;
40170;SDS011;37650;52.790;18.268;2023-03-26T04:39:22;8.00;;;2.60;;
40170;SDS011;37650;52.790;18.268;2023-03-26T04:43:15;5.80;;;2.60;;
40170;SDS011;37650;52.790;18.268;2023-03-26T04:46:47;5.70;;;2.30;;
40170;SDS011;37650;52.790;18.268;2023-03-26T04:50:17;8.40;;;2.90;;
40170;SDS011;37650;52.790;18.268;2023-03-26T04:53:39;4.10;;;2.30;;
40170;SDS011;37650;52.790;18.268;2023-03-26T04:57:09;5.80;;;2.80;;
40170;SDS011;37650;52.790;18.268;2023-03-26T05:00:56;4.70;;;2.60;;
40170;SDS011;37650;52.790;18.268;2023-03-26T05:04:21;6.70;;;2.50;;
40170;SDS011;37650;52.790;18.268;2023-03-26T05:07:50;3.80;;;2.70;;
40170;SDS011;37650;52.790;18.268;2023-03-26T05:14:34;4.90;;;2.30;;
40170;SDS011;37650;52.790;18.268;2023-03-26T05:17:57;5.30;;;2.40;;
40170;SDS011;37650;52.790;18.268;2023-03-26T05:21:38;8.30;;;2.50;;
40170;SDS011;37650;52.790;18.268;2023-03-26T05:25:02;4.80;;;1.70;;
40170;SDS011;37650;52.790;18.268;2023-03-26T05:28:23;5.10;;;1.90;;
40170;SDS011;37650;52.790;18.268;2023-03-26T05:32:07;5.80;;;2.50;;
40170;SDS011;37650;52.790;18.268;2023-03-26T05:35:30;4.40;;;2.20;;
40170;SDS011;37650;52.790;18.268;2023-03-26T05:38:51;4.60;;;2.10;;
40170;SDS011;37650;52.790;18.268;2023-03-26T05:42:32;3.00;;;1.70;;
40170;SDS011;37650;52.790;18.268;2023-03-26T05:46:11;5.70;;;1.90;;
40170;SDS011;37650;52.790;18.268;2023-03-26T05:49:33;5.20;;;2.00;;
40170;SDS011;37650;52.790;18.268;2023-03-26T05:52:54;4.70;;;2.20;;
40170;SDS011;37650;52.790;18.268;2023-03-26T05:56:38;4.40;;;1.90;;
40170;SDS011;37650;52.790;18.268;2023-03-26T06:00:18;9.10;;;2.60;;
40170;SDS011;37650;52.790;18.268;2023-03-26T06:03:40;11.60;;;6.90;;
40170;SDS011;37650;52.790;18.268;2023-03-26T06:07:10;5.30;;;3.20;;
40170;SDS011;37650;52.790;18.268;2023-03-26T06:10:37;3.60;;;2.10;;
40170;SDS011;37650;52.790;18.268;2023-03-26T06:13:59;4.30;;;2.00;;
40170;SDS011;37650;52.790;18.268;2023-03-26T06:17:21;5.20;;;2.30;;
40170;SDS011;37650;52.790;18.268;2023-03-26T06:21:17;4.60;;;2.60;;
40170;SDS011;37650;52.790;18.268;2023-03-26T06:24:54;7.70;;;3.70;;
40170;SDS011;37650;52.790;18.268;2023-03-26T06:28:32;5.60;;;3.20;;
40170;SDS011;37650;52.790;18.268;2023-03-26T06:32:12;4.60;;;2.30;;
40170;SDS011;37650;52.790;18.268;2023-03-26T06:35:44;5.80;;;3.10;;
40170;SDS011;37650;52.790;18.268;2023-03-26T06:39:07;4.60;;;2.30;;
40170;SDS011;37650;52.790;18.268;2023-03-26T06:46:14;8.10;;;3.80;;
40170;SDS011;37650;52.790;18.268;2023-03-26T06:49:54;6.00;;;3.40;;
40170;SDS011;37650;52.790;18.268;2023-03-26T06:53:41;4.20;;;2.20;;
40170;SDS011;37650;52.790;18.268;2023-03-26T06:57:23;4.40;;;2.40;;
40170;SDS011;37650;52.790;18.268;2023-03-26T07:01:03;4.30;;;2.30;;
40170;SDS011;37650;52.790;18.268;2023-03-26T07:04:50;5.00;;;2.10;;
40170;SDS011;37650;52.790;18.268;2023-03-26T07:08:32;7.40;;;2.20;;
40170;SDS011;37650;52.790;18.268;2023-03-26T07:12:13;5.80;;;2.50;;
40170;SDS011;37650;52.790;18.268;2023-03-26T07:15:53;4.30;;;2.00;;
40170;SDS011;37650;52.790;18.268;2023-03-26T07:19:33;4.70;;;2.00;;
40170;SDS011;37650;52.790;18.268;2023-03-26T07:30:14;8.00;;;3.60;;
40170;SDS011;37650;52.790;18.268;2023-03-26T07:34:35;8.30;;;3.60;;
40170;SDS011;37650;52.790;18.268;2023-03-26T07:42:03;4.80;;;2.20;;
40170;SDS011;37650;52.790;18.268;2023-03-26T07:46:07;7.40;;;3.20;;
40170;SDS011;37650;52.790;18.268;2023-03-26T07:54:35;6.70;;;2.70;;
40170;SDS011;37650;52.790;18.268;2023-03-26T08:06:17;3.60;;;1.50;;
40170;SDS011;37650;52.790;18.268;2023-03-26T08:17:53;3.40;;;1.40;;
40170;SDS011;37650;52.790;18.268;2023-03-26T08:21:25;3.90;;;1.70;;
40170;SDS011;37650;52.790;18.268;2023-03-26T08:32:17;2.80;;;1.20;;
40170;SDS011;37650;52.790;18.268;2023-03-26T08:35:40;3.00;;;1.80;;
40170;SDS011;37650;52.790;18.268;2023-03-26T08:39:04;3.90;;;1.90;;
40170;SDS011;37650;52.790;18.268;2023-03-26T08:57:19;3.60;;;1.70;;
40170;SDS011;37650;52.790;18.268;2023-03-26T09:08:17;3.10;;;1.30;;
40170;SDS011;37650;52.790;18.268;2023-03-26T09:12:30;4.70;;;1.80;;
40170;SDS011;37650;52.790;18.268;2023-03-26T09:27:37;5.50;;;1.70;;
40170;SDS011;37650;52.790;18.268;2023-03-26T09:42:08;4.40;;;1.90;;
40170;SDS011;37650;52.790;18.268;2023-03-26T09:46:02;4.30;;;1.90;;
40170;SDS011;37650;52.790;18.268;2023-03-26T09:49:43;4.40;;;1.70;;
40170;SDS011;37650;52.790;18.268;2023-03-26T10:23:10;2.50;;;1.10;;
40170;SDS011;37650;52.790;18.268;2023-03-26T10:26:57;5.20;;;2.00;;
40170;SDS011;37650;52.790;18.268;2023-03-26T10:38:00;5.60;;;1.90;;
40170;SDS011;37650;52.790;18.268;2023-03-26T10:48:53;4.10;;;1.90;;
40170;SDS011;37650;52.790;18.268;2023-03-26T10:52:42;3.90;;;1.90;;
40170;SDS011;37650;52.790;18.268;2023-03-26T10:59:40;5.60;;;2.20;;
40170;SDS011;37650;52.790;18.268;2023-03-26T11:06:48;4.30;;;2.20;;
40170;SDS011;37650;52.790;18.268;2023-03-26T11:17:49;3.70;;;1.70;;
40170;SDS011;37650;52.790;18.268;2023-03-26T11:21:17;4.50;;;2.10;;
40170;SDS011;37650;52.790;18.268;2023-03-26T11:32:25;3.90;;;1.50;;
40170;SDS011;37650;52.790;18.268;2023-03-26T11:36:12;4.10;;;1.60;;
40170;SDS011;37650;52.790;18.268;2023-03-26T11:39:56;4.20;;;1.80;;
40170;SDS011;37650;52.790;18.268;2023-03-26T11:43:20;6.70;;;1.90;;
40170;SDS011;37650;52.790;18.268;2023-03-26T11:46:47;4.90;;;2.10;;
40170;SDS011;37650;52.790;18.268;2023-03-26T11:50:17;8.50;;;3.90;;
40170;SDS011;37650;52.790;18.268;2023-03-26T11:53:45;6.80;;;2.90;;
40170;SDS011;37650;52.790;18.268;2023-03-26T11:57:11;5.00;;;1.80;;
40170;SDS011;37650;52.790;18.268;2023-03-26T12:00:39;15.10;;;8.70;;
40170;SDS011;37650;52.790;18.268;2023-03-26T12:04:03;4.10;;;2.00;;
40170;SDS011;37650;52.790;18.268;2023-03-26T12:07:33;11.20;;;7.50;;
40170;SDS011;37650;52.790;18.268;2023-03-26T12:11:08;8.50;;;5.40;;
40170;SDS011;37650;52.790;18.268;2023-03-26T12:14:33;9.30;;;4.60;;
40170;SDS011;37650;52.790;18.268;2023-03-26T12:17:55;4.40;;;1.80;;
40170;SDS011;37650;52.790;18.268;2023-03-26T12:21:19;9.80;;;6.80;;
40170;SDS011;37650;52.790;18.268;2023-03-26T12:24:41;6.70;;;4.50;;
40170;SDS011;37650;52.790;18.268;2023-03-26T12:32:12;11.20;;;7.40;;
40170;SDS011;37650;52.790;18.268;2023-03-26T12:35:27;9.30;;;5.50;;
40170;SDS011;37650;52.790;18.268;2023-03-26T12:38:54;5.10;;;1.80;;
40170;SDS011;37650;52.790;18.268;2023-03-26T12:42:29;3.50;;;1.50;;
40170;SDS011;37650;52.790;18.268;2023-03-26T12:45:55;4.70;;;2.60;;
40170;SDS011;37650;52.790;18.268;2023-03-26T12:49:22;17.70;;;9.90;;
40170;SDS011;37650;52.790;18.268;2023-03-26T12:52:47;9.50;;;6.00;;
40170;SDS011;37650;52.790;18.268;2023-03-26T13:00:44;2.90;;;1.10;;
40170;SDS011;37650;52.790;18.268;2023-03-26T13:04:39;3.10;;;1.60;;
40170;SDS011;37650;52.790;18.268;2023-03-26T13:15:43;3.70;;;1.80;;
40170;SDS011;37650;52.790;18.268;2023-03-26T13:23:11;3.20;;;1.60;;
40170;SDS011;37650;52.790;18.268;2023-03-26T13:48:22;5.40;;;2.30;;
40170;SDS011;37650;52.790;18.268;2023-03-26T13:51:54;5.60;;;2.90;;
40170;SDS011;37650;52.790;18.268;2023-03-26T13:55:21;4.60;;;2.50;;
40170;SDS011;37650;52.790;18.268;2023-03-26T13:58:51;6.50;;;4.60;;
40170;SDS011;37650;52.790;18.268;2023-03-26T14:05:56;8.90;;;5.80;;
40170;SDS011;37650;52.790;18.268;2023-03-26T14:09:26;8.70;;;5.00;;
40170;SDS011;37650;52.790;18.268;2023-03-26T14:16:38;9.00;;;4.70;;
40170;SDS011;37650;52.790;18.268;2023-03-26T14:20:09;8.00;;;5.10;;
40170;SDS011;37650;52.790;18.268;2023-03-26T14:31:35;3.30;;;1.30;;
40170;SDS011;37650;52.790;18.268;2023-03-26T14:38:59;3.10;;;1.30;;
40170;SDS011;37650;52.790;18.268;2023-03-26T14:42:40;4.20;;;2.20;;
40170;SDS011;37650;52.790;18.268;2023-03-26T14:46:26;11.50;;;7.40;;
40170;SDS011;37650;52.790;18.268;2023-03-26T14:53:41;4.80;;;2.20;;
40170;SDS011;37650;52.790;18.268;2023-03-26T14:57:16;6.80;;;2.20;;
40170;SDS011;37650;52.790;18.268;2023-03-26T15:01:01;5.00;;;2.00;;
40170;SDS011;37650;52.790;18.268;2023-03-26T15:27:37;7.00;;;3.10;;
40170;SDS011;37650;52.790;18.268;2023-03-26T15:41:54;7.20;;;3.80;;
40170;SDS011;37650;52.790;18.268;2023-03-26T15:49:48;6.70;;;3.20;;
40170;SDS011;37650;52.790;18.268;2023-03-26T16:05:34;5.10;;;3.00;;
40170;SDS011;37650;52.790;18.268;2023-03-26T16:09:11;17.90;;;9.80;;
40170;SDS011;37650;52.790;18.268;2023-03-26T16:16:51;9.20;;;5.30;;
40170;SDS011;37650;52.790;18.268;2023-03-26T16:20:28;10.80;;;5.40;;
40170;SDS011;37650;52.790;18.268;2023-03-26T16:27:27;8.80;;;4.60;;
40170;SDS011;37650;52.790;18.268;2023-03-26T16:31:33;8.40;;;4.40;;
40170;SDS011;37650;52.790;18.268;2023-03-26T16:34:56;6.10;;;3.20;;
40170;SDS011;37650;52.790;18.268;2023-03-26T16:38:22;7.90;;;3.20;;
40170;SDS011;37650;52.790;18.268;2023-03-26T16:45:13;11.70;;;4.80;;
40170;SDS011;37650;52.790;18.268;2023-03-26T16:48:48;9.30;;;4.70;;
40170;SDS011;37650;52.790;18.268;2023-03-26T16:56:10;6.40;;;3.30;;
40170;SDS011;37650;52.790;18.268;2023-03-26T16:59:43;8.20;;;2.70;;
40170;SDS011;37650;52.790;18.268;2023-03-26T17:03:26;7.30;;;3.40;;
40170;SDS011;37650;52.790;18.268;2023-03-26T17:14:52;4.90;;;1.30;;
40170;SDS011;37650;52.790;18.268;2023-03-26T17:33:30;5.20;;;1.80;;
40170;SDS011;37650;52.790;18.268;2023-03-26T17:36:56;6.30;;;2.00;;
40170;SDS011;37650;52.790;18.268;2023-03-26T17:40:42;8.70;;;2.30;;
40170;SDS011;37650;52.790;18.268;2023-03-26T17:44:28;5.20;;;2.20;;
40170;SDS011;37650;52.790;18.268;2023-03-26T17:48:00;10.80;;;4.50;;
40170;SDS011;37650;52.790;18.268;2023-03-26T17:55:26;12.20;;;5.90;;
40170;SDS011;37650;52.790;18.268;2023-03-26T17:58:56;12.30;;;6.40;;
40170;SDS011;37650;52.790;18.268;2023-03-26T18:02:34;8.40;;;4.40;;
40170;SDS011;37650;52.790;18.268;2023-03-26T18:06:07;8.70;;;4.80;;
40170;SDS011;37650;52.790;18.268;2023-03-26T18:13:40;11.60;;;5.60;;
40170;SDS011;37650;52.790;18.268;2023-03-26T18:17:11;10.10;;;5.40;;
40170;SDS011;37650;52.790;18.268;2023-03-26T18:20:34;11.50;;;5.80;;
40170;SDS011;37650;52.790;18.268;2023-03-26T18:24:04;12.80;;;6.50;;
40170;SDS011;37650;52.790;18.268;2023-03-26T18:27:36;17.10;;;10.60;;
40170;SDS011;37650;52.790;18.268;2023-03-26T18:34:46;20.60;;;11.60;;
40170;SDS011;37650;52.790;18.268;2023-03-26T18:38:20;19.40;;;12.90;;
40170;SDS011;37650;52.790;18.268;2023-03-26T18:41:47;24.70;;;14.10;;
40170;SDS011;37650;52.790;18.268;2023-03-26T18:48:55;33.80;;;20.60;;
40170;SDS011;37650;52.790;18.268;2023-03-26T18:52:22;26.00;;;17.00;;
40170;SDS011;37650;52.790;18.268;2023-03-26T18:55:46;30.00;;;18.00;;
40170;SDS011;37650;52.790;18.268;2023-03-26T18:59:18;26.50;;;16.00;;
40170;SDS011;37650;52.790;18.268;2023-03-26T19:03:03;22.80;;;13.90;;
40170;SDS011;37650;52.790;18.268;2023-03-26T19:06:30;21.20;;;12.90;;
40170;SDS011;37650;52.790;18.268;2023-03-26T19:09:59;21.40;;;13.10;;
40170;SDS011;37650;52.790;18.268;2023-03-26T19:13:22;19.20;;;13.40;;
40170;SDS011;37650;52.790;18.268;2023-03-26T19:16:48;19.80;;;13.20;;
40170;SDS011;37650;52.790;18.268;2023-03-26T19:20:26;21.30;;;12.80;;
40170;SDS011;37650;52.790;18.268;2023-03-26T19:23:54;19.00;;;11.20;;
40170;SDS011;37650;52.790;18.268;2023-03-26T19:27:20;19.30;;;11.40;;
40170;SDS011;37650;52.790;18.268;2023-03-26T19:30:57;22.80;;;14.90;;
40170;SDS011;37650;52.790;18.268;2023-03-26T19:34:37;24.10;;;15.00;;
40170;SDS011;37650;52.790;18.268;2023-03-26T19:38:03;31.90;;;16.70;;
40170;SDS011;37650;52.790;18.268;2023-03-26T19:41:42;28.90;;;16.20;;
40170;SDS011;37650;52.790;18.268;2023-03-26T19:45:16;35.10;;;19.10;;
40170;SDS011;37650;52.790;18.268;2023-03-26T19:48:42;40.80;;;32.80;;
40170;SDS011;37650;52.790;18.268;2023-03-26T19:52:16;47.00;;;33.70;;
40170;SDS011;37650;52.790;18.268;2023-03-26T19:56:26;51.50;;;29.50;;
40170;SDS011;37650;52.790;18.268;2023-03-26T19:59:30;47.70;;;28.20;;
40170;SDS011;37650;52.790;18.268;2023-03-26T20:02:55;53.60;;;32.10;;
40170;SDS011;37650;52.790;18.268;2023-03-26T20:06:20;53.40;;;34.70;;
40170;SDS011;37650;52.790;18.268;2023-03-26T20:09:44;51.30;;;34.30;;
40170;SDS011;37650;52.790;18.268;2023-03-26T20:13:11;39.80;;;24.40;;
40170;SDS011;37650;52.790;18.268;2023-03-26T20:16:38;33.10;;;20.70;;
40170;SDS011;37650;52.790;18.268;2023-03-26T20:20:00;24.50;;;12.20;;
40170;SDS011;37650;52.790;18.268;2023-03-26T20:23:25;17.90;;;9.90;;
40170;SDS011;37650;52.790;18.268;2023-03-26T20:26:54;22.20;;;10.80;;
40170;SDS011;37650;52.790;18.268;2023-03-26T20:30:16;19.80;;;10.60;;
40170;SDS011;37650;52.790;18.268;2023-03-26T20:33:42;20.30;;;11.70;;
40170;SDS011;37650;52.790;18.268;2023-03-26T20:37:04;17.40;;;9.90;;
40170;SDS011;37650;52.790;18.268;2023-03-26T20:40:27;15.90;;;8.60;;
40170;SDS011;37650;52.790;18.268;2023-03-26T20:43:49;17.00;;;8.30;;
40170;SDS011;37650;52.790;18.268;2023-03-26T20:50:34;13.70;;;6.90;;
40170;SDS011;37650;52.790;18.268;2023-03-26T20:53:57;14.50;;;8.20;;
40170;SDS011;37650;52.790;18.268;2023-03-26T20:57:21;14.70;;;7.30;;
40170;SDS011;37650;52.790;18.268;2023-03-26T21:00:43;12.70;;;7.30;;
40170;SDS011;37650;52.790;18.268;2023-03-26T21:04:06;12.80;;;7.70;;
40170;SDS011;37650;52.790;18.268;2023-03-26T21:07:27;13.40;;;6.80;;
40170;SDS011;37650;52.790;18.268;2023-03-26T21:10:49;12.90;;;7.30;;
40170;SDS011;37650;52.790;18.268;2023-03-26T21:17:53;10.20;;;5.20;;
40170;SDS011;37650;52.790;18.268;2023-03-26T21:28:46;16.30;;;8.10;;
40170;SDS011;37650;52.790;18.268;2023-03-26T21:32:11;12.50;;;6.80;;
40170;SDS011;37650;52.790;18.268;2023-03-26T21:35:34;13.00;;;6.40;;
40170;SDS011;37650;52.790;18.268;2023-03-26T21:38:56;12.40;;;6.30;;
40170;SDS011;37650;52.790;18.268;2023-03-26T21:42:17;11.90;;;6.30;;
40170;SDS011;37650;52.790;18.268;2023-03-26T21:45:40;14.40;;;6.60;;
40170;SDS011;37650;52.790;18.268;2023-03-26T21:49:02;12.30;;;6.40;;
40170;SDS011;37650;52.790;18.268;2023-03-26T21:52:24;11.90;;;7.10;;
40170;SDS011;37650;52.790;18.268;2023-03-26T22:06:56;12.60;;;7.20;;
40170;SDS011;37650;52.790;18.268;2023-03-26T22:10:24;15.80;;;7.40;;
40170;SDS011;37650;52.790;18.268;2023-03-26T22:13:46;13.30;;;6.20;;
40170;SDS011;37650;52.790;18.268;2023-03-26T22:17:07;12.80;;;5.30;;
40170;SDS011;37650;52.790;18.268;2023-03-26T22:20:29;11.50;;;4.90;;
40170;SDS011;37650;52.790;18.268;2023-03-26T22:23:54;11.50;;;4.50;;
40170;SDS011;37650;52.790;18.268;2023-03-26T22:27:15;9.90;;;4.50;;
40170;SDS011;37650;52.790;18.268;2023-03-26T22:30:37;13.10;;;5.40;;
40170;SDS011;37650;52.790;18.268;2023-03-26T22:33:58;16.90;;;4.80;;
40170;SDS011;37650;52.790;18.268;2023-03-26T22:37:20;16.10;;;6.20;;
40170;SDS011;37650;52.790;18.268;2023-03-26T22:40:43;10.10;;;4.60;;
40170;SDS011;37650;52.790;18.268;2023-03-26T22:44:04;13.00;;;4.40;;
40170;SDS011;37650;52.790;18.268;2023-03-26T22:47:26;11.80;;;3.90;;
40170;SDS011;37650;52.790;18.268;2023-03-26T22:51:03;12.50;;;4.30;;
40170;SDS011;37650;52.790;18.268;2023-03-26T22:54:25;13.20;;;4.30;;
40170;SDS011;37650;52.790;18.268;2023-03-26T22:57:47;9.60;;;4.30;;
40170;SDS011;37650;52.790;18.268;2023-03-26T23:01:12;12.00;;;5.10;;
40170;SDS011;37650;52.790;18.268;2023-03-26T23:04:37;13.70;;;4.40;;
40170;SDS011;37650;52.790;18.268;2023-03-26T23:07:59;13.50;;;4.10;;
40170;SDS011;37650;52.790;18.268;2023-03-26T23:11:20;14.80;;;4.30;;
40170;SDS011;37650;52.790;18.268;2023-03-26T23:14:42;11.60;;;4.20;;
40170;SDS011;37650;52.790;18.268;2023-03-26T23:18:03;13.10;;;3.90;;
40170;SDS011;37650;52.790;18.268;2023-03-26T23:21:26;11.70;;;3.80;;
40170;SDS011;37650;52.790;18.268;2023-03-26T23:24:48;16.60;;;4.70;;
40170;SDS011;37650;52.790;18.268;2023-03-26T23:28:10;15.90;;;4.40;;
40170;SDS011;37650;52.790;18.268;2023-03-26T23:31:31;15.70;;;4.70;;
40170;SDS011;37650;52.790;18.268;2023-03-26T23:34:52;17.90;;;5.00;;
40170;SDS011;37650;52.790;18.268;2023-03-26T23:38:17;16.50;;;4.90;;
40170;SDS011;37650;52.790;18.268;2023-03-26T23:41:44;13.60;;;4.90;;
40170;SDS011;37650;52.790;18.268;2023-03-26T23:45:06;14.70;;;4.10;;
40170;SDS011;37650;52.790;18.268;2023-03-26T23:48:28;18.00;;;5.00;;
40170;SDS011;37650;52.790;18.268;2023-03-26T23:51:49;13.70;;;4.10;;
40170;SDS011;37650;52.790;18.268;2023-03-26T23:55:11;16.70;;;5.50;;
40170;SDS011;37650;52.790;18.268;2023-03-26T23:58:33;13.30;;;5.00;;
